Time;durP1;ratioP1;P1;durP2;ratioP2;P2;SDS_P1;SDS_P2;PMS_P1;PMS_P2;Temp;Humidity;BMP_temperature;BMP_pressure;BME280_temperature;BME280_humidity;BME280_pressure;Samples;Min_cycle;Max_cycle;Signal;HPM_P1;HPM_P2
2024/04/02 00:01:12;;;;;;;21.67;6.30;;;;;;;12.08;60.23;92974.91;3651717;31;20153;-52
2024/04/02 00:03:41;;;;;;;22.25;5.38;;;;;;;12.15;60.62;92966.59;3684330;31;20133;-48
2024/04/02 00:06:09;;;;;;;25.95;5.65;;;;;;;11.93;60.57;92967.72;3629875;32;20106;-48
2024/04/02 00:08:39;;;;;;;20.77;5.70;;;;;;;12.09;60.08;92959.66;3698837;31;20138;-48
2024/04/02 00:11:06;;;;;;;19.80;6.15;;;;;;;12.00;60.32;92962.88;3637967;31;20126;-48
2024/04/02 00:13:34;;;;;;;28.35;5.50;;;;;;;12.13;60.28;92966.06;3682021;31;20137;-48
2024/04/02 00:16:02;;;;;;;19.33;4.63;;;;;;;12.14;60.25;92960.44;3694836;31;20098;-50
2024/04/02 00:18:29;;;;;;;17.05;5.57;;;;;;;12.10;60.86;92954.06;3656946;31;20121;-48
2024/04/02 00:21:00;;;;;;;15.30;5.90;;;;;;;12.21;60.52;92958.28;3665136;32;20109;-50
2024/04/02 00:23:28;;;;;;;18.92;7.53;;;;;;;12.04;61.10;92955.13;3692231;31;20113;-50
2024/04/02 00:26:02;;;;;;;24.80;7.28;;;;;;;12.11;60.84;92949.50;3682288;31;20109;-52
2024/04/02 00:28:29;;;;;;;21.48;6.78;;;;;;;12.13;60.58;92952.69;3703221;31;20145;-52
2024/04/02 00:31:00;;;;;;;23.15;6.80;;;;;;;12.16;60.02;92942.28;3675801;31;20128;-52
2024/04/02 00:33:30;;;;;;;18.35;4.60;;;;;;;12.18;59.12;92945.47;3713917;31;20102;-47
2024/04/02 00:36:05;;;;;;;16.65;4.75;;;;;;;12.02;58.05;92959.94;3704930;31;20118;-48
2024/04/02 00:38:33;;;;;;;23.80;5.47;;;;;;;11.94;60.47;92961.31;3674040;31;20417;-52
2024/04/02 00:41:00;;;;;;;14.93;4.53;;;;;;;11.70;59.39;92958.41;3701195;31;20110;-52
2024/04/02 00:43:27;;;;;;;14.90;4.65;;;;;;;11.72;59.61;92958.94;3691142;31;20143;-50
2024/04/02 00:45:55;;;;;;;26.48;3.95;;;;;;;11.58;62.43;92949.88;3626138;39;20134;-49
2024/04/02 00:48:23;;;;;;;25.50;5.32;;;;;;;11.54;62.03;92960.31;3688955;31;20125;-48
2024/04/02 00:50:51;;;;;;;20.95;5.65;;;;;;;11.66;61.84;92952.00;3635583;31;20552;-48
2024/04/02 00:53:21;;;;;;;14.90;4.43;;;;;;;11.43;62.26;92950.72;3703497;31;20483;-52
2024/04/02 00:55:48;;;;;;;;;;;;;;;11.48;62.23;92948.06;3707568;31;20499;-49
2024/04/02 00:58:15;;;;;;;24.73;4.97;;;;;;;11.50;63.17;92940.56;3670928;31;20014;-50
2024/04/02 01:00:43;;;;;;;14.77;5.45;;;;;;;11.30;63.08;92948.59;3687140;31;20165;-50
2024/04/02 01:03:10;;;;;;;20.80;4.70;;;;;;;10.99;64.01;92938.75;3638456;32;20141;-50
2024/04/02 01:05:38;;;;;;;18.27;4.75;;;;;;;11.19;63.94;92937.13;3699109;32;20231;-49
2024/04/02 01:08:08;;;;;;;18.23;5.35;;;;;;;10.98;64.87;92933.66;3676317;31;20130;-48
2024/04/02 01:10:35;;;;;;;21.95;5.45;;;;;;;10.86;64.58;92925.94;3680476;31;20479;-50
2024/04/02 01:13:02;;;;;;;20.60;6.90;;;;;;;10.72;65.21;92923.00;3690218;31;20153;-48
2024/04/02 01:15:29;;;;;;;17.17;4.57;;;;;;;10.76;65.84;92924.06;3701978;31;20524;-49
2024/04/02 01:17:56;;;;;;;16.60;6.10;;;;;;;10.91;64.78;92931.28;3658440;31;20133;-50
2024/04/02 01:20:23;;;;;;;18.75;4.20;;;;;;;11.04;64.87;92924.59;3617589;32;20556;-50
2024/04/02 01:22:50;;;;;;;16.27;4.97;;;;;;;10.96;64.53;92930.47;3697075;31;20563;-47
2024/04/02 01:25:23;;;;;;;17.25;3.88;;;;;;;11.03;64.74;92923.00;3668554;31;20573;-48
2024/04/02 01:27:50;;;;;;;21.45;4.40;;;;;;;10.89;64.72;92928.06;3631489;31;20137;-53
2024/04/02 01:30:17;;;;;;;19.58;4.32;;;;;;;10.93;65.29;92937.13;3670511;31;20219;-49
2024/04/02 01:32:44;;;;;;;16.67;5.13;;;;;;;11.08;64.48;92933.69;3625355;39;20121;-51
2024/04/02 01:35:14;;;;;;;21.38;7.68;;;;;;;11.16;63.83;92937.66;3695692;31;20125;-51
2024/04/02 01:37:41;;;;;;;13.75;3.50;;;;;;;11.14;64.11;92943.28;3673909;31;20133;-49
2024/04/02 01:40:08;;;;;;;17.08;4.45;;;;;;;11.16;64.21;92934.97;3681989;31;20200;-51
2024/04/02 01:42:36;;;;;;;22.40;6.00;;;;;;;10.91;64.67;92931.28;3625265;39;20121;-51
2024/04/02 01:45:03;;;;;;;20.38;4.88;;;;;;;11.04;64.28;92937.94;3640204;31;20152;-47
2024/04/02 01:47:30;;;;;;;18.85;5.22;;;;;;;10.82;64.58;92941.66;3682229;31;20563;-50
2024/04/02 01:49:57;;;;;;;16.70;5.10;;;;;;;10.79;64.61;92936.84;3668196;31;20425;-52
2024/04/02 01:52:24;;;;;;;15.93;4.78;;;;;;;10.54;64.94;92940.31;3668117;31;20145;-52
2024/04/02 01:54:51;;;;;;;19.88;4.13;;;;;;;10.73;65.31;92927.28;3690909;31;20137;-47
2024/04/02 01:57:18;;;;;;;14.70;5.57;;;;;;;10.67;64.32;92936.31;3634047;31;20129;-49
2024/04/02 01:59:45;;;;;;;17.75;5.40;;;;;;;10.69;65.26;92920.88;3656698;31;20131;-49
2024/04/02 02:02:12;;;;;;;12.77;3.95;;;;;;;10.52;65.54;92929.09;3692098;31;20148;-50
2024/04/02 02:04:39;;;;;;;17.45;4.68;;;;;;;10.63;65.63;92927.25;3668008;31;20182;-49
2024/04/02 02:07:05;;;;;;;17.35;4.95;;;;;;;10.77;65.07;92909.66;3627720;31;20133;-48
2024/04/02 02:09:32;;;;;;;17.23;5.07;;;;;;;10.55;65.92;92909.91;3638469;31;20142;-47
2024/04/02 02:11:59;;;;;;;19.98;4.53;;;;;;;10.38;66.65;92893.38;3706120;31;20588;-48
2024/04/02 02:14:26;;;;;;;18.15;5.78;;;;;;;10.56;65.94;92900.06;3631898;32;20137;-47
2024/04/02 02:16:53;;;;;;;20.05;5.25;;;;;;;10.60;65.95;92887.81;3685767;31;20117;-50
2024/04/02 02:19:20;;;;;;;16.55;5.18;;;;;;;10.45;66.50;92887.78;3675517;31;20138;-47
2024/04/02 02:21:47;;;;;;;20.95;5.10;;;;;;;10.56;65.97;92889.41;3622345;39;20153;-50
2024/04/02 02:24:14;;;;;;;18.48;5.88;;;;;;;10.67;65.29;92876.88;3674690;31;20560;-51
2024/04/02 02:26:41;;;;;;;21.10;5.50;;;;;;;10.63;65.63;92876.63;3637824;31;20174;-49
2024/04/02 02:29:08;;;;;;;20.33;4.80;;;;;;;10.60;66.17;92871.81;3624338;32;20138;-49
2024/04/02 02:31:36;;;;;;;21.13;8.20;;;;;;;10.63;65.58;92869.44;3641252;31;20449;-48
2024/04/02 02:34:03;;;;;;;19.13;4.13;;;;;;;10.59;65.29;92857.69;3647043;31;20193;-50
2024/04/02 02:36:31;;;;;;;18.38;4.30;;;;;;;10.59;65.68;92849.69;3693408;31;20137;-52
2024/04/02 02:38:57;;;;;;;18.10;4.80;;;;;;;10.38;66.03;92853.41;3709037;31;20130;-51
2024/04/02 02:41:24;;;;;;;11.65;4.35;;;;;;;10.25;67.36;92840.59;3670993;32;20139;-50
2024/04/02 02:43:51;;;;;;;21.55;5.45;;;;;;;10.20;66.48;92842.19;3684920;32;20133;-47
2024/04/02 02:46:18;;;;;;;15.27;4.13;;;;;;;9.92;67.67;92838.16;3666065;31;20186;-54
2024/04/02 02:48:45;;;;;;;22.85;4.15;;;;;;;10.14;67.56;92839.78;3678554;31;20473;-50
2024/04/02 02:51:12;;;;;;;15.75;5.18;;;;;;;9.94;68.27;92828.03;3692049;31;20134;-51
2024/04/02 02:53:38;;;;;;;20.10;5.25;;;;;;;10.09;68.32;92831.78;3665787;31;20134;-51
2024/04/02 02:59:26;;;;;;;18.15;9.57;;;;;;;9.84;67.91;92811.25;3652658;39;20278;-52
2024/04/02 03:01:53;;;;;;;20.02;7.40;;;;;;;9.93;68.20;92802.47;3634505;31;20169;-51
2024/04/02 03:04:20;;;;;;;18.40;8.20;;;;;;;9.86;68.75;92804.59;3682666;31;20146;-48
2024/04/02 03:06:47;;;;;;;22.15;7.30;;;;;;;10.04;68.60;92807.81;3677675;31;20582;-49
2024/04/02 03:09:14;;;;;;;20.35;6.80;;;;;;;10.10;68.16;92804.88;3624567;31;20485;-51
2024/04/02 03:11:41;;;;;;;17.10;7.00;;;;;;;9.97;67.28;92818.72;3640314;31;20599;-54
2024/04/02 03:14:08;;;;;;;17.70;6.53;;;;;;;10.11;67.27;92819.00;3659101;31;20485;-50
2024/04/02 03:16:35;;;;;;;20.55;6.95;;;;;;;10.04;67.00;92832.56;3681357;31;20134;-50
2024/04/02 03:19:02;;;;;;;22.13;6.68;;;;;;;10.11;67.80;92825.13;3674561;31;20121;-53
2024/04/02 03:21:29;;;;;;;15.90;6.82;;;;;;;10.23;66.99;92836.31;3687378;31;20706;-47
2024/04/02 03:23:56;;;;;;;15.65;7.38;;;;;;;10.29;64.96;92834.50;3701119;31;20137;-51
2024/04/02 03:26:23;;;;;;;30.85;6.82;;;;;;;10.06;64.04;92842.97;3686934;31;20596;-52
2024/04/02 03:28:50;;;;;;;18.52;7.55;;;;;;;10.07;66.58;92837.38;3673936;31;20584;-52
2024/04/02 03:31:17;;;;;;;28.42;6.72;;;;;;;10.05;66.29;92836.03;3696255;31;20469;-52
2024/04/02 03:33:44;;;;;;;21.20;7.28;;;;;;;9.72;68.25;92838.06;3667102;31;20141;-50
2024/04/02 03:36:11;;;;;;;24.85;8.55;;;;;;;9.80;68.21;92845.56;3626740;32;20141;-53
2024/04/02 03:38:37;;;;;;;23.00;8.70;;;;;;;9.80;68.48;92838.38;3661324;31;20145;-52
2024/04/02 03:41:13;;;;;;;23.75;7.57;;;;;;;9.90;67.29;92832.28;3648107;32;20141;-54
2024/04/02 03:43:42;;;;;;;16.27;7.25;;;;;;;9.90;67.14;92824.28;3684705;31;20141;-50
2024/04/02 03:46:10;;;;;;;20.92;7.72;;;;;;;9.79;68.65;92825.31;3691062;31;20133;-53
2024/04/02 03:48:37;;;;;;;16.05;7.75;;;;;;;9.74;68.28;92828.75;3698469;31;20130;-49
2024/04/02 03:51:04;;;;;;;21.48;7.35;;;;;;;9.68;69.04;92829.00;3621913;39;20156;-52
2024/04/02 03:53:31;;;;;;;16.15;8.90;;;;;;;9.48;69.96;92835.06;3631351;32;20130;-51
2024/04/02 03:56:00;;;;;;;21.55;6.20;;;;;;;9.61;69.57;92843.34;3692202;31;20125;-50
2024/04/02 03:58:27;;;;;;;20.00;6.63;;;;;;;9.65;69.25;92840.19;3643081;32;20141;-49
2024/04/02 04:00:54;;;;;;;21.23;8.05;;;;;;;9.45;70.13;92846.22;3667793;32;20134;-52
2024/04/02 04:03:25;;;;;;;23.90;9.02;;;;;;;9.48;70.38;92843.03;3647568;32;20130;-48
2024/04/02 04:06:05;;;;;;;17.55;6.65;;;;;;;9.68;69.71;92855.63;3610753;32;20574;-49
2024/04/02 04:08:33;;;;;;;18.52;7.03;;;;;;;9.50;69.96;92867.53;3662161;32;20138;-49
2024/04/02 04:11:00;;;;;;;16.23;7.13;;;;;;;9.40;69.99;92871.72;3633696;32;20161;-50
2024/04/02 04:13:27;;;;;;;13.57;7.47;;;;;;;9.54;69.83;92850.78;3608381;32;20126;-49
2024/04/02 04:16:01;;;;;;;20.98;9.10;;;;;;;9.37;70.24;92866.94;3689274;32;20130;-49
2024/04/02 04:18:28;;;;;;;24.83;10.35;;;;;;;9.47;70.31;92858.19;3665708;32;20186;-50
2024/04/02 04:21:02;;;;;;;25.98;7.55;;;;;;;9.48;70.58;92873.09;3638224;32;20454;-52
2024/04/02 04:23:30;;;;;;;19.00;7.80;;;;;;;9.19;70.99;92886.75;3711583;32;20140;-49
2024/04/02 04:26:01;;;;;;;20.88;7.57;;;;;;;9.34;71.55;92883.38;3671560;32;20131;-50
2024/04/02 04:28:29;;;;;;;18.10;9.05;;;;;;;8.96;71.28;92873.84;3630761;32;20161;-50
2024/04/02 04:30:58;;;;;;;13.48;7.30;;;;;;;9.10;71.28;92872.34;3649045;32;20143;-47
2024/04/02 04:33:26;;;;;;;25.83;8.25;;;;;;;9.29;70.31;92888.69;3646088;32;20566;-49
2024/04/02 04:35:54;;;;;;;20.48;10.05;;;;;;;9.39;71.09;92882.63;3651739;32;20574;-50
2024/04/02 04:38:24;;;;;;;18.63;7.22;;;;;;;9.32;69.23;92888.16;3658121;32;20135;-52
2024/04/02 04:40:51;;;;;;;19.45;6.07;;;;;;;9.13;70.58;92886.97;3602765;32;20138;-51
2024/04/02 04:43:18;;;;;;;19.90;6.93;;;;;;;9.37;70.70;92890.88;3666817;32;20127;-52
2024/04/02 04:46:03;;;;;;;17.17;7.80;;;;;;;9.56;70.31;92893.88;3645475;32;20134;-49
2024/04/02 04:48:31;;;;;;;16.33;8.30;;;;;;;9.51;70.00;92907.16;3661951;32;20154;-49
2024/04/02 04:51:05;;;;;;;14.52;6.97;;;;;;;9.63;70.03;92911.47;3653733;32;20139;-49
2024/04/02 04:53:33;;;;;;;20.60;6.72;;;;;;;9.80;69.79;92906.75;3657760;32;20138;-49
2024/04/02 04:56:01;;;;;;;22.23;8.13;;;;;;;9.80;69.00;92904.09;3627579;32;20182;-50
2024/04/02 04:58:28;;;;;;;27.30;8.57;;;;;;;9.83;69.09;92919.53;3677643;32;20126;-48
2024/04/02 05:00:55;;;;;;;24.25;10.43;;;;;;;9.86;68.27;92910.22;3647312;32;20130;-49
2024/04/02 05:03:22;;;;;;;28.13;8.77;;;;;;;9.88;68.20;92926.72;3658805;32;20173;-48
2024/04/02 05:05:49;;;;;;;18.52;7.38;;;;;;;9.89;68.51;92915.03;3631680;32;20134;-52
2024/04/02 05:08:25;;;;;;;25.42;9.05;;;;;;;9.89;69.25;92912.38;3608630;32;20161;-51
2024/04/02 05:10:53;;;;;;;18.80;8.95;;;;;;;9.68;69.35;92922.13;3656633;32;20135;-47
2024/04/02 05:13:20;;;;;;;17.40;8.23;;;;;;;9.56;69.56;92917.81;3668035;32;20158;-49
2024/04/02 05:15:47;;;;;;;19.98;9.93;;;;;;;9.58;69.76;92928.19;3653748;32;20126;-49
2024/04/02 05:18:14;;;;;;;19.48;7.90;;;;;;;9.89;69.41;92933.69;3649310;32;20582;-52
2024/04/02 05:20:42;;;;;;;22.45;7.63;;;;;;;10.10;68.44;92930.03;3661172;32;20577;-50
2024/04/02 05:23:09;;;;;;;19.40;7.97;;;;;;;10.21;68.15;92915.66;3668474;32;20126;-48
2024/04/02 05:25:36;;;;;;;20.55;6.88;;;;;;;9.98;68.71;92938.22;3612458;32;20126;-51
2024/04/02 05:28:04;;;;;;;27.10;7.78;;;;;;;10.06;68.77;92917.50;3653072;32;20142;-50
2024/04/02 05:30:30;;;;;;;21.98;8.32;;;;;;;10.08;69.05;92918.03;3642682;32;20194;-51
2024/04/02 05:32:58;;;;;;;25.55;9.02;;;;;;;10.09;69.34;92922.28;3603317;32;20138;-51
2024/04/02 05:35:25;;;;;;;21.95;7.22;;;;;;;10.19;68.53;92917.78;3647837;32;20134;-51
2024/04/02 05:37:53;;;;;;;17.00;8.07;;;;;;;10.33;67.73;92920.00;3659821;32;20137;-51
2024/04/02 05:40:21;;;;;;;27.75;11.65;;;;;;;10.49;67.45;92931.50;3666186;32;20138;-45
2024/04/02 05:42:48;;;;;;;23.27;9.30;;;;;;;10.70;67.72;92924.31;3666952;32;20480;-49
2024/04/02 05:45:16;;;;;;;20.60;13.20;;;;;;;10.77;67.37;92930.19;3678440;32;20142;-48
2024/04/02 05:47:44;;;;;;;28.85;9.40;;;;;;;10.90;67.11;92932.31;3602385;32;20134;-49
2024/04/02 05:50:11;;;;;;;22.15;8.73;;;;;;;10.75;67.32;92933.13;3595219;32;20130;-48
2024/04/02 05:52:38;;;;;;;20.55;9.65;;;;;;;10.94;67.72;92925.41;3675705;32;20150;-51
2024/04/02 05:55:05;;;;;;;21.25;9.80;;;;;;;10.81;67.01;92928.59;3601440;39;20203;-50
2024/04/02 05:57:32;;;;;;;27.70;8.95;;;;;;;10.87;67.30;92930.19;3626677;32;20166;-46
2024/04/02 05:59:59;;;;;;;23.80;8.57;;;;;;;11.13;66.87;92924.88;3630334;32;20143;-45
2024/04/02 06:02:26;;;;;;;21.92;9.52;;;;;;;11.18;66.47;92935.53;3637359;32;20476;-49
2024/04/02 06:04:53;;;;;;;18.35;6.85;;;;;;;11.45;64.85;92933.34;3643850;32;20461;-47
2024/04/02 06:07:22;;;;;;;25.88;8.02;;;;;;;11.65;65.31;92929.06;3646002;32;20139;-51
2024/04/02 06:09:49;;;;;;;20.67;8.95;;;;;;;11.47;65.12;92925.09;3673427;32;20629;-48
2024/04/02 06:12:16;;;;;;;25.30;9.50;;;;;;;11.79;64.99;92946.09;3644829;32;20142;-47
2024/04/02 06:14:42;;;;;;;25.42;10.43;;;;;;;11.95;64.66;92946.06;3627998;32;20181;-51
2024/04/02 06:17:09;;;;;;;18.50;11.55;;;;;;;11.80;64.80;92938.91;3609379;32;20138;-50
2024/04/02 06:19:36;;;;;;;22.02;11.80;;;;;;;11.89;64.51;92929.28;3644639;32;20589;-52
2024/04/02 06:22:03;;;;;;;22.90;6.03;;;;;;;12.05;63.58;92940.69;3700339;32;20464;-53
2024/04/02 06:24:31;;;;;;;21.02;11.18;;;;;;;12.33;63.31;92947.28;3668876;32;20126;-48
2024/04/02 06:26:58;;;;;;;18.30;11.30;;;;;;;12.39;62.88;92940.03;3681042;32;20581;-48
2024/04/02 06:29:26;;;;;;;26.95;9.00;;;;;;;12.74;61.85;92931.00;3636728;32;20498;-50
2024/04/02 06:31:54;;;;;;;42.70;10.07;;;;;;;13.54;60.20;92951.25;3660711;32;20142;-50
2024/04/02 06:34:21;;;;;;;25.13;8.15;;;;;;;14.29;57.72;92948.06;3618666;32;20581;-49
2024/04/02 06:36:48;;;;;;;22.38;9.77;;;;;;;14.62;55.65;92940.16;3680252;32;20127;-50
2024/04/02 06:39:15;;;;;;;19.52;7.97;;;;;;;15.05;55.51;92936.59;3714385;32;20126;-48
2024/04/02 06:41:42;;;;;;;20.50;8.02;;;;;;;15.41;54.86;92933.34;3663023;32;20210;-48
2024/04/02 06:44:09;;;;;;;23.65;8.30;;;;;;;15.49;53.33;92946.91;3605341;32;20119;-51
2024/04/02 06:46:36;;;;;;;17.83;7.38;;;;;;;15.41;53.78;92955.63;3623895;32;20486;-47
2024/04/02 06:49:03;;;;;;;32.33;8.85;;;;;;;15.70;53.05;92954.59;3641603;32;20142;-49
2024/04/02 06:51:29;;;;;;;21.08;8.60;;;;;;;15.46;54.54;92944.00;3683045;32;20142;-50
2024/04/02 06:53:56;;;;;;;22.70;8.38;;;;;;;16.28;50.93;92954.09;3645493;32;20134;-51
2024/04/02 06:56:25;;;;;;;17.73;6.43;;;;;;;17.81;43.12;92962.53;3606964;39;20463;-52
2024/04/02 06:58:52;;;;;;;20.85;5.50;;;;;;;19.75;36.33;92944.59;3645458;32;20549;-47
2024/04/02 07:01:21;;;;;;;22.55;7.07;;;;;;;21.25;34.87;92930.84;3661095;32;20098;-53
2024/04/02 07:03:47;;;;;;;20.75;6.28;;;;;;;22.53;31.66;92949.22;3688765;32;20128;-48
2024/04/02 07:06:15;;;;;;;20.85;4.97;;;;;;;23.53;29.61;92941.41;3699148;32;20127;-51
2024/04/02 07:08:46;;;;;;;22.23;6.13;;;;;;;24.44;27.82;92943.47;3606701;39;20158;-53
2024/04/02 07:11:13;;;;;;;18.08;4.38;;;;;;;26.55;25.87;92954.59;3643302;32;20502;-53
2024/04/02 07:13:40;;;;;;;19.27;6.13;;;;;;;26.17;24.80;92945.34;3668181;32;20130;-49
2024/04/02 07:16:07;;;;;;;22.45;3.95;;;;;;;25.26;25.39;92950.13;3615173;32;20134;-52
2024/04/02 07:18:36;;;;;;;19.77;4.45;;;;;;;24.36;27.89;92932.75;3606636;32;20142;-49
2024/04/02 07:21:04;;;;;;;;;;;;;;;23.63;28.43;92959.97;3635107;32;20130;-48
2024/04/02 07:23:32;;;;;;;19.02;4.45;;;;;;;23.78;29.09;92963.13;3647541;32;20035;-50
2024/04/02 07:25:59;;;;;;;21.15;4.82;;;;;;;23.95;28.92;92959.31;3608436;32;20130;-49
2024/04/02 07:28:27;;;;;;;20.63;6.00;;;;;;;24.45;28.46;92952.41;3607526;32;20143;-51
2024/04/02 07:30:54;;;;;;;22.15;5.03;;;;;;;24.48;28.30;92948.22;3652761;32;20130;-51
2024/04/02 07:33:21;;;;;;;16.73;4.88;;;;;;;24.88;27.79;92952.69;3633136;32;20179;-55
2024/04/02 07:35:48;;;;;;;18.38;4.35;;;;;;;24.68;27.78;92968.97;3593014;39;20140;-54
2024/04/02 07:38:15;;;;;;;28.35;4.82;;;;;;;25.05;27.38;92972.22;3649897;32;20477;-52
2024/04/02 07:40:43;;;;;;;20.58;5.50;;;;;;;25.98;25.81;92961.75;3653640;32;20171;-52
2024/04/02 07:43:10;;;;;;;24.75;5.47;;;;;;;25.35;25.77;92973.66;3671919;32;20130;-50
2024/04/02 07:45:37;;;;;;;20.05;5.20;;;;;;;25.26;26.32;92971.13;3633155;32;20557;-53
2024/04/02 07:48:05;;;;;;;23.40;5.05;;;;;;;25.66;25.90;92959.13;3646792;32;20163;-54
2024/04/02 07:50:34;;;;;;;22.63;5.47;;;;;;;26.27;25.36;92966.59;3629207;32;20154;-46
2024/04/02 07:53:02;;;;;;;17.95;4.03;;;;;;;26.89;24.61;92963.78;3626192;32;20434;-52
2024/04/02 07:55:29;;;;;;;18.23;4.03;;;;;;;25.77;25.80;92975.72;3622912;32;20589;-48
2024/04/02 07:57:56;;;;;;;19.15;4.15;;;;;;;25.12;26.14;92976.25;3611724;32;20143;-49
2024/04/02 08:00:22;;;;;;;19.65;5.35;;;;;;;24.79;27.27;92986.41;3642963;32;20157;-50
2024/04/02 08:02:50;;;;;;;16.98;3.95;;;;;;;23.77;27.84;92970.50;3676893;32;20124;-51
2024/04/02 08:05:16;;;;;;;21.58;5.45;;;;;;;23.81;28.29;92955.06;3647019;32;20134;-50
2024/04/02 08:07:47;;;;;;;21.67;4.35;;;;;;;23.75;28.69;92969.22;3620197;32;20143;-50
2024/04/02 08:10:15;;;;;;;23.98;4.65;;;;;;;24.25;28.22;92973.31;3648938;32;20138;-54
2024/04/02 08:12:42;;;;;;;26.17;4.95;;;;;;;24.31;28.79;92980.09;3622514;32;20308;-53
2024/04/02 08:15:09;;;;;;;20.35;4.80;;;;;;;24.39;28.63;92984.59;3662851;32;20214;-53
2024/04/02 08:17:36;;;;;;;21.10;6.30;;;;;;;25.27;28.22;92967.28;3632017;32;20553;-49
2024/04/02 08:20:06;;;;;;;20.90;5.13;;;;;;;25.72;26.40;92973.28;3663127;32;20142;-50
2024/04/02 08:22:33;;;;;;;19.45;5.47;;;;;;;25.39;27.90;92978.06;3609909;32;20142;-51
2024/04/02 08:25:00;;;;;;;20.70;5.75;;;;;;;25.31;27.57;92981.78;3647929;32;20135;-53
2024/04/02 08:27:27;;;;;;;23.95;7.07;;;;;;;24.60;29.38;92980.84;3646261;32;20130;-51
2024/04/02 08:29:54;;;;;;;18.67;5.90;;;;;;;25.39;28.07;92972.59;3624800;32;20138;-52
2024/04/02 08:32:22;;;;;;;21.35;6.03;;;;;;;25.96;27.74;92985.88;3662583;32;20434;-49
2024/04/02 08:34:49;;;;;;;18.25;6.45;;;;;;;27.25;25.18;92950.66;3611750;32;20149;-53
2024/04/02 08:37:17;;;;;;;20.60;6.28;;;;;;;27.72;25.82;92972.38;3646711;32;20145;-54
2024/04/02 08:39:44;;;;;;;23.05;6.45;;;;;;;28.39;24.77;92977.13;3658506;32;20483;-52
2024/04/02 08:42:11;;;;;;;24.55;5.90;;;;;;;29.16;23.71;92959.03;3620853;32;20135;-51
2024/04/02 08:44:38;;;;;;;18.80;5.47;;;;;;;28.30;24.95;92971.94;3693316;32;20130;-49
2024/04/02 08:47:06;;;;;;;19.23;5.00;;;;;;;27.48;26.02;92996.31;3621642;32;20130;-50
2024/04/02 08:49:33;;;;;;;22.02;5.40;;;;;;;26.59;26.78;92982.78;3624426;32;20138;-50
2024/04/02 08:52:01;;;;;;;21.20;6.70;;;;;;;25.08;28.47;92997.97;3641804;32;20580;-54
2024/04/02 08:54:30;;;;;;;17.48;4.65;;;;;;;26.03;27.63;92970.44;3602061;32;20496;-50
2024/04/02 08:56:57;;;;;;;19.23;5.50;;;;;;;26.93;26.67;92976.69;3645536;32;20126;-51
2024/04/02 08:59:26;;;;;;;20.27;5.75;;;;;;;27.52;25.83;92969.78;3607365;32;20130;-52
2024/04/02 09:01:58;;;;;;;20.10;5.70;;;;;;;28.42;25.30;92976.34;3637698;32;20565;-51
2024/04/02 09:04:26;;;;;;;20.77;6.28;;;;;;;27.81;25.78;92970.97;3693554;32;20138;-52
2024/04/02 09:06:53;;;;;;;21.55;4.65;;;;;;;26.88;26.77;92975.06;3659153;32;20138;-48
2024/04/02 09:09:25;;;;;;;20.67;4.18;;;;;;;26.05;27.05;92970.88;3670215;32;20134;-48
2024/04/02 09:11:53;;;;;;;23.90;6.70;;;;;;;25.40;27.46;92971.44;3662500;32;20182;-53
2024/04/02 09:14:21;;;;;;;21.45;4.93;;;;;;;25.39;28.21;92988.97;3658660;32;20214;-53
2024/04/02 09:16:48;;;;;;;20.15;4.50;;;;;;;25.13;29.01;92975.88;3607639;32;21114;-54
2024/04/02 09:19:15;;;;;;;22.05;4.45;;;;;;;25.15;29.14;92954.50;3613717;32;20145;-51
2024/04/02 09:21:42;;;;;;;18.85;5.47;;;;;;;25.31;27.69;92978.25;3657361;32;20561;-51
2024/04/02 09:24:10;;;;;;;17.10;4.15;;;;;;;25.62;26.47;92963.72;3670307;32;20483;-53
2024/04/02 09:26:37;;;;;;;17.55;4.60;;;;;;;26.06;26.99;92955.28;3663470;32;20134;-55
2024/04/02 09:29:04;;;;;;;22.08;5.65;;;;;;;25.66;27.05;92959.91;3643510;32;20146;-50
2024/04/02 09:31:32;;;;;;;15.38;4.40;;;;;;;26.18;25.77;92952.38;3618568;32;20185;-51
2024/04/02 09:34:07;;;;;;;25.80;4.55;;;;;;;26.38;24.99;92933.22;3676890;32;20134;-49
2024/04/02 09:36:46;;;;;;;20.92;4.13;;;;;;;26.77;24.08;92944.81;3613177;32;20134;-54
2024/04/02 09:39:15;;;;;;;15.00;4.25;;;;;;;26.71;23.46;92940.81;3651886;32;20145;-52
2024/04/02 09:41:44;;;;;;;19.55;5.30;;;;;;;26.23;24.85;92940.38;3603228;32;20130;-52
2024/04/02 09:44:15;;;;;;;12.93;5.05;;;;;;;25.84;23.51;92964.97;3615021;32;20130;-49
2024/04/02 09:46:43;;;;;;;16.30;3.75;;;;;;;25.71;22.23;92975.22;3616290;32;20132;-51
2024/04/02 09:49:11;;;;;;;12.13;3.15;;;;;;;25.25;21.75;92932.16;3633368;32;20139;-53
2024/04/02 09:51:42;;;;;;;9.43;2.30;;;;;;;25.90;22.30;92932.72;3681778;32;20596;-51
2024/04/02 09:54:10;;;;;;;16.90;3.53;;;;;;;26.25;21.16;92955.25;3679006;32;20138;-52
2024/04/02 09:56:37;;;;;;;16.00;2.80;;;;;;;25.49;22.74;92935.00;3682286;32;20150;-51
2024/04/02 09:59:06;;;;;;;13.45;4.25;;;;;;;26.16;22.50;92932.03;3650403;32;20134;-51
2024/04/02 10:01:35;;;;;;;9.93;3.13;;;;;;;26.43;21.98;92943.84;3661893;32;20221;-48
2024/04/02 10:04:09;;;;;;;11.77;2.90;;;;;;;26.55;22.07;92929.22;3665051;32;20596;-51
2024/04/02 10:06:37;;;;;;;16.42;2.90;;;;;;;26.69;20.95;92943.13;3648993;32;20146;-48
2024/04/02 10:09:06;;;;;;;;;;;;;;;26.79;21.30;92928.84;3606549;32;20135;-49
2024/04/02 10:11:40;;;;;;;12.80;4.15;;;;;;;27.77;20.97;92939.22;3630235;32;20066;-49
2024/04/02 10:14:17;;;;;;;16.42;2.95;;;;;;;27.87;19.08;92933.91;3686575;32;20577;-47
2024/04/02 10:16:49;;;;;;;7.28;2.50;;;;;;;27.90;18.57;92930.41;3648768;32;20130;-48
2024/04/02 10:19:22;;;;;;;14.07;2.08;;;;;;;27.45;19.68;92942.34;3603027;32;20439;-49
2024/04/02 10:21:50;;;;;;;16.80;2.60;;;;;;;27.48;19.37;92938.84;3676273;32;20135;-49
2024/04/02 10:24:22;;;;;;;8.32;2.97;;;;;;;28.07;19.33;92940.00;3644546;32;20135;-52
2024/04/02 10:26:56;;;;;;;12.05;2.20;;;;;;;27.93;18.66;92925.34;3675011;32;20130;-51
2024/04/02 10:29:33;;;;;;;14.18;3.25;;;;;;;28.32;18.34;92950.44;3659878;32;20139;-51
2024/04/02 10:32:01;;;;;;;12.35;3.83;;;;;;;28.24;18.79;92944.09;3621592;32;20146;-49
2024/04/02 10:34:29;;;;;;;15.23;2.80;;;;;;;29.00;17.36;92920.13;3682954;32;20180;-49
2024/04/02 10:36:57;;;;;;;;;;;;;;;28.91;17.62;92934.94;3608567;32;20135;-50
2024/04/02 10:39:24;;;;;;;10.93;2.65;;;;;;;28.18;19.94;92936.59;3658658;32;20382;-50
2024/04/02 10:41:51;;;;;;;10.45;2.88;;;;;;;28.00;19.99;92922.72;3623003;32;20130;-52
2024/04/02 10:44:18;;;;;;;8.75;2.42;;;;;;;27.86;18.87;92951.47;3640204;32;20229;-49
2024/04/02 10:46:45;;;;;;;7.07;2.17;;;;;;;27.33;18.86;92957.00;3635443;32;20134;-50
2024/04/02 10:49:12;;;;;;;7.47;1.95;;;;;;;26.69;19.07;92954.06;3630438;32;20130;-48
2024/04/02 10:51:38;;;;;;;12.98;3.47;;;;;;;26.54;18.98;92949.47;3613827;32;20142;-52
2024/04/02 10:54:05;;;;;;;9.05;3.03;;;;;;;25.68;20.85;92959.56;3623120;32;20134;-52
2024/04/02 10:56:34;;;;;;;6.00;2.65;;;;;;;24.69;21.28;92962.41;3663441;32;20167;-53
2024/04/02 10:59:03;;;;;;;9.57;3.55;;;;;;;24.03;21.79;92950.19;3665890;32;20118;-53
2024/04/02 11:01:30;;;;;;;7.75;1.77;;;;;;;24.11;21.47;92941.09;3636467;32;20193;-48
2024/04/02 11:03:58;;;;;;;6.38;2.83;;;;;;;24.80;21.57;92935.41;3644300;32;20142;-50
2024/04/02 11:06:28;;;;;;;7.63;3.33;;;;;;;24.72;20.71;92926.25;3652187;32;20127;-51
2024/04/02 11:08:56;;;;;;;18.92;2.20;;;;;;;24.82;20.25;92938.56;3645994;32;20158;-50
2024/04/02 11:11:24;;;;;;;6.78;2.70;;;;;;;24.91;22.15;92931.00;3623114;32;20138;-50
2024/04/02 11:13:51;;;;;;;8.43;2.60;;;;;;;24.89;20.89;92911.47;3612369;32;20127;-54
2024/04/02 11:16:18;;;;;;;6.85;3.35;;;;;;;25.68;20.50;92919.41;3683191;32;20471;-50
2024/04/02 11:18:45;;;;;;;6.60;2.70;;;;;;;26.28;19.29;92913.53;3653184;32;20127;-52
2024/04/02 11:21:17;;;;;;;8.98;2.85;;;;;;;26.64;18.97;92911.44;3647382;32;20624;-48
2024/04/02 11:26:31;;;;;;;6.50;2.25;;;;;;;27.11;18.54;92912.13;3675157;32;20134;-51
2024/04/02 11:29:05;;;;;;;8.93;2.42;;;;;;;26.68;18.39;92903.31;3646321;32;20122;-50
2024/04/02 11:31:32;;;;;;;7.18;2.78;;;;;;;26.80;17.44;92885.91;3609987;32;20134;-51
2024/04/02 11:34:02;;;;;;;6.97;2.95;;;;;;;26.62;18.13;92886.41;3639538;32;20138;-51
2024/04/02 11:36:30;;;;;;;5.82;2.28;;;;;;;26.37;18.68;92883.28;3680740;32;20142;-52
2024/04/02 11:38:58;;;;;;;8.45;2.65;;;;;;;26.28;16.28;92894.41;3610533;32;20138;-52